sensor_id;sensor_type;location;lat;lon;timestamp;P1;durP1;ratioP1;P2;durP2;ratioP2
36191;SDS011;22233;42.708;23.360;2023-06-22T00:01:46;11.48;;;7.50;;
36191;SDS011;22233;42.708;23.360;2023-06-22T00:04:12;11.63;;;7.63;;
36191;SDS011;22233;42.708;23.360;2023-06-22T00:06:37;8.55;;;7.60;;
36191;SDS011;22233;42.708;23.360;2023-06-22T00:09:03;8.35;;;7.45;;
36191;SDS011;22233;42.708;23.360;2023-06-22T00:11:28;9.52;;;7.15;;
36191;SDS011;22233;42.708;23.360;2023-06-22T00:13:54;7.93;;;7.13;;
36191;SDS011;22233;42.708;23.360;2023-06-22T00:16:19;8.38;;;7.43;;
36191;SDS011;22233;42.708;23.360;2023-06-22T00:18:44;7.95;;;7.05;;
36191;SDS011;22233;42.708;23.360;2023-06-22T00:23:37;7.57;;;6.60;;
36191;SDS011;22233;42.708;23.360;2023-06-22T00:26:03;9.13;;;7.13;;
36191;SDS011;22233;42.708;23.360;2023-06-22T00:28:28;7.70;;;6.90;;
36191;SDS011;22233;42.708;23.360;2023-06-22T00:30:54;9.15;;;7.10;;
36191;SDS011;22233;42.708;23.360;2023-06-22T00:33:19;7.78;;;6.95;;
36191;SDS011;22233;42.708;23.360;2023-06-22T00:35:45;11.77;;;7.18;;
36191;SDS011;22233;42.708;23.360;2023-06-22T00:38:10;8.60;;;7.00;;
36191;SDS011;22233;42.708;23.360;2023-06-22T00:40:36;7.78;;;6.97;;
36191;SDS011;22233;42.708;23.360;2023-06-22T00:43:02;8.20;;;7.38;;
36191;SDS011;22233;42.708;23.360;2023-06-22T00:45:28;7.72;;;6.85;;
36191;SDS011;22233;42.708;23.360;2023-06-22T00:47:53;8.82;;;7.30;;
36191;SDS011;22233;42.708;23.360;2023-06-22T00:50:21;11.80;;;7.65;;
36191;SDS011;22233;42.708;23.360;2023-06-22T00:52:50;8.10;;;7.20;;
36191;SDS011;22233;42.708;23.360;2023-06-22T00:55:18;7.47;;;6.78;;
36191;SDS011;22233;42.708;23.360;2023-06-22T00:57:45;8.23;;;7.03;;
36191;SDS011;22233;42.708;23.360;2023-06-22T01:00:12;8.75;;;7.38;;
36191;SDS011;22233;42.708;23.360;2023-06-22T01:02:42;7.80;;;6.97;;
36191;SDS011;22233;42.708;23.360;2023-06-22T01:05:10;9.20;;;6.60;;
36191;SDS011;22233;42.708;23.360;2023-06-22T01:07:51;8.02;;;7.18;;
36191;SDS011;22233;42.708;23.360;2023-06-22T01:12:56;9.35;;;6.55;;
36191;SDS011;22233;42.708;23.360;2023-06-22T01:17:52;9.38;;;7.35;;
36191;SDS011;22233;42.708;23.360;2023-06-22T01:20:18;8.15;;;6.38;;
36191;SDS011;22233;42.708;23.360;2023-06-22T01:25:21;10.00;;;6.68;;
36191;SDS011;22233;42.708;23.360;2023-06-22T01:30:56;9.68;;;6.75;;
36191;SDS011;22233;42.708;23.360;2023-06-22T01:33:31;7.78;;;6.75;;
36191;SDS011;22233;42.708;23.360;2023-06-22T01:36:00;7.63;;;6.65;;
36191;SDS011;22233;42.708;23.360;2023-06-22T01:38:27;9.00;;;6.75;;
36191;SDS011;22233;42.708;23.360;2023-06-22T01:40:53;8.65;;;6.65;;
36191;SDS011;22233;42.708;23.360;2023-06-22T01:43:21;8.88;;;6.43;;
36191;SDS011;22233;42.708;23.360;2023-06-22T01:45:48;7.72;;;6.75;;
36191;SDS011;22233;42.708;23.360;2023-06-22T01:48:14;9.70;;;7.40;;
36191;SDS011;22233;42.708;23.360;2023-06-22T01:50:40;7.55;;;6.75;;
36191;SDS011;22233;42.708;23.360;2023-06-22T01:53:06;9.48;;;6.97;;
36191;SDS011;22233;42.708;23.360;2023-06-22T01:55:32;9.30;;;7.18;;
36191;SDS011;22233;42.708;23.360;2023-06-22T01:57:57;8.20;;;7.40;;
36191;SDS011;22233;42.708;23.360;2023-06-22T02:00:23;9.57;;;7.68;;
36191;SDS011;22233;42.708;23.360;2023-06-22T02:03:08;17.33;;;8.05;;
36191;SDS011;22233;42.708;23.360;2023-06-22T02:05:42;9.45;;;7.88;;
36191;SDS011;22233;42.708;23.360;2023-06-22T02:08:18;9.43;;;7.90;;
36191;SDS011;22233;42.708;23.360;2023-06-22T02:10:46;11.45;;;7.82;;
36191;SDS011;22233;42.708;23.360;2023-06-22T02:15:39;13.05;;;7.85;;
36191;SDS011;22233;42.708;23.360;2023-06-22T02:18:05;10.82;;;7.63;;
36191;SDS011;22233;42.708;23.360;2023-06-22T02:20:31;10.35;;;8.07;;
36191;SDS011;22233;42.708;23.360;2023-06-22T02:22:56;10.63;;;8.45;;
36191;SDS011;22233;42.708;23.360;2023-06-22T02:25:22;10.52;;;8.63;;
36191;SDS011;22233;42.708;23.360;2023-06-22T02:27:47;11.98;;;7.80;;
36191;SDS011;22233;42.708;23.360;2023-06-22T02:30:13;11.48;;;7.95;;
36191;SDS011;22233;42.708;23.360;2023-06-22T02:32:41;12.25;;;8.45;;
36191;SDS011;22233;42.708;23.360;2023-06-22T02:35:07;10.43;;;8.02;;
36191;SDS011;22233;42.708;23.360;2023-06-22T02:37:34;9.50;;;8.05;;
36191;SDS011;22233;42.708;23.360;2023-06-22T02:40:03;9.77;;;8.45;;
36191;SDS011;22233;42.708;23.360;2023-06-22T02:42:31;12.90;;;8.07;;
36191;SDS011;22233;42.708;23.360;2023-06-22T02:44:57;8.45;;;7.65;;
36191;SDS011;22233;42.708;23.360;2023-06-22T02:47:22;11.65;;;8.65;;
36191;SDS011;22233;42.708;23.360;2023-06-22T02:49:48;11.68;;;7.57;;
36191;SDS011;22233;42.708;23.360;2023-06-22T02:52:13;10.60;;;7.60;;
36191;SDS011;22233;42.708;23.360;2023-06-22T02:54:39;11.38;;;7.40;;
36191;SDS011;22233;42.708;23.360;2023-06-22T02:57:04;8.65;;;7.75;;
36191;SDS011;22233;42.708;23.360;2023-06-22T02:59:30;9.10;;;7.95;;
36191;SDS011;22233;42.708;23.360;2023-06-22T03:01:55;9.27;;;8.05;;
36191;SDS011;22233;42.708;23.360;2023-06-22T03:04:21;10.35;;;8.52;;
36191;SDS011;22233;42.708;23.360;2023-06-22T03:06:46;14.85;;;7.60;;
36191;SDS011;22233;42.708;23.360;2023-06-22T03:09:16;16.20;;;7.82;;
36191;SDS011;22233;42.708;23.360;2023-06-22T03:11:42;10.82;;;7.78;;
36191;SDS011;22233;42.708;23.360;2023-06-22T03:14:07;12.10;;;8.10;;
36191;SDS011;22233;42.708;23.360;2023-06-22T03:16:32;13.05;;;7.97;;
36191;SDS011;22233;42.708;23.360;2023-06-22T03:18:58;9.70;;;8.70;;
36191;SDS011;22233;42.708;23.360;2023-06-22T03:21:27;10.93;;;8.35;;
36191;SDS011;22233;42.708;23.360;2023-06-22T03:23:53;10.00;;;8.65;;
36191;SDS011;22233;42.708;23.360;2023-06-22T03:26:19;10.50;;;8.50;;
36191;SDS011;22233;42.708;23.360;2023-06-22T03:28:44;10.45;;;8.73;;
36191;SDS011;22233;42.708;23.360;2023-06-22T03:31:10;9.93;;;8.88;;
36191;SDS011;22233;42.708;23.360;2023-06-22T03:33:36;11.20;;;8.98;;
36191;SDS011;22233;42.708;23.360;2023-06-22T03:36:01;10.20;;;8.93;;
36191;SDS011;22233;42.708;23.360;2023-06-22T03:38:27;15.65;;;9.75;;
36191;SDS011;22233;42.708;23.360;2023-06-22T03:40:53;10.93;;;9.18;;
36191;SDS011;22233;42.708;23.360;2023-06-22T03:43:18;11.63;;;9.55;;
36191;SDS011;22233;42.708;23.360;2023-06-22T03:45:43;11.73;;;8.85;;
36191;SDS011;22233;42.708;23.360;2023-06-22T03:48:10;13.53;;;8.40;;
36191;SDS011;22233;42.708;23.360;2023-06-22T03:50:36;9.30;;;8.35;;
36191;SDS011;22233;42.708;23.360;2023-06-22T03:53:02;13.40;;;8.68;;
36191;SDS011;22233;42.708;23.360;2023-06-22T03:55:27;9.77;;;8.70;;
36191;SDS011;22233;42.708;23.360;2023-06-22T03:57:53;10.90;;;8.60;;
36191;SDS011;22233;42.708;23.360;2023-06-22T04:00:21;8.98;;;7.68;;
36191;SDS011;22233;42.708;23.360;2023-06-22T04:02:47;9.82;;;7.53;;
36191;SDS011;22233;42.708;23.360;2023-06-22T04:05:13;10.27;;;7.85;;
36191;SDS011;22233;42.708;23.360;2023-06-22T04:07:38;9.32;;;7.85;;
36191;SDS011;22233;42.708;23.360;2023-06-22T04:10:04;11.63;;;7.97;;
36191;SDS011;22233;42.708;23.360;2023-06-22T04:12:30;9.45;;;7.78;;
36191;SDS011;22233;42.708;23.360;2023-06-22T04:14:55;10.13;;;8.15;;
36191;SDS011;22233;42.708;23.360;2023-06-22T04:17:21;12.77;;;8.25;;
36191;SDS011;22233;42.708;23.360;2023-06-22T04:19:46;10.85;;;7.53;;
36191;SDS011;22233;42.708;23.360;2023-06-22T04:22:12;11.05;;;7.82;;
36191;SDS011;22233;42.708;23.360;2023-06-22T04:24:37;8.95;;;8.02;;
36191;SDS011;22233;42.708;23.360;2023-06-22T04:27:03;8.50;;;7.50;;
36191;SDS011;22233;42.708;23.360;2023-06-22T04:29:29;9.82;;;8.18;;
36191;SDS011;22233;42.708;23.360;2023-06-22T04:31:58;9.48;;;7.72;;
36191;SDS011;22233;42.708;23.360;2023-06-22T04:34:28;8.80;;;7.57;;
36191;SDS011;22233;42.708;23.360;2023-06-22T04:36:54;8.70;;;7.82;;
36191;SDS011;22233;42.708;23.360;2023-06-22T04:39:19;15.85;;;7.88;;
36191;SDS011;22233;42.708;23.360;2023-06-22T04:41:45;12.98;;;8.10;;
36191;SDS011;22233;42.708;23.360;2023-06-22T04:44:14;12.02;;;7.68;;
36191;SDS011;22233;42.708;23.360;2023-06-22T04:46:51;10.55;;;8.07;;
36191;SDS011;22233;42.708;23.360;2023-06-22T04:49:22;10.88;;;8.85;;
36191;SDS011;22233;42.708;23.360;2023-06-22T04:51:48;12.85;;;8.50;;
36191;SDS011;22233;42.708;23.360;2023-06-22T04:54:16;12.95;;;8.52;;
36191;SDS011;22233;42.708;23.360;2023-06-22T04:56:42;17.30;;;11.32;;
36191;SDS011;22233;42.708;23.360;2023-06-22T04:59:07;20.65;;;11.10;;
36191;SDS011;22233;42.708;23.360;2023-06-22T05:01:33;18.70;;;11.05;;
36191;SDS011;22233;42.708;23.360;2023-06-22T05:03:59;15.70;;;9.15;;
36191;SDS011;22233;42.708;23.360;2023-06-22T05:06:26;13.10;;;10.00;;
36191;SDS011;22233;42.708;23.360;2023-06-22T05:08:53;10.35;;;7.85;;
36191;SDS011;22233;42.708;23.360;2023-06-22T05:11:25;11.63;;;8.55;;
36191;SDS011;22233;42.708;23.360;2023-06-22T05:13:52;16.08;;;8.93;;
36191;SDS011;22233;42.708;23.360;2023-06-22T05:16:18;11.48;;;8.70;;
36191;SDS011;22233;42.708;23.360;2023-06-22T05:18:49;11.55;;;8.18;;
36191;SDS011;22233;42.708;23.360;2023-06-22T05:21:16;11.20;;;8.90;;
36191;SDS011;22233;42.708;23.360;2023-06-22T05:23:41;12.48;;;9.27;;
36191;SDS011;22233;42.708;23.360;2023-06-22T05:26:06;12.13;;;9.13;;
36191;SDS011;22233;42.708;23.360;2023-06-22T05:30:59;9.45;;;8.40;;
36191;SDS011;22233;42.708;23.360;2023-06-22T05:33:25;11.45;;;8.52;;
36191;SDS011;22233;42.708;23.360;2023-06-22T05:35:50;11.82;;;9.07;;
36191;SDS011;22233;42.708;23.360;2023-06-22T05:38:16;13.40;;;9.00;;
36191;SDS011;22233;42.708;23.360;2023-06-22T05:40:41;11.65;;;8.70;;
36191;SDS011;22233;42.708;23.360;2023-06-22T05:43:06;12.32;;;8.88;;
36191;SDS011;22233;42.708;23.360;2023-06-22T05:45:32;11.10;;;8.23;;
36191;SDS011;22233;42.708;23.360;2023-06-22T05:47:57;12.25;;;9.10;;
36191;SDS011;22233;42.708;23.360;2023-06-22T05:50:22;10.82;;;9.15;;
36191;SDS011;22233;42.708;23.360;2023-06-22T05:52:48;11.32;;;9.43;;
36191;SDS011;22233;42.708;23.360;2023-06-22T05:55:13;11.45;;;8.45;;
36191;SDS011;22233;42.708;23.360;2023-06-22T05:57:40;12.23;;;8.80;;
36191;SDS011;22233;42.708;23.360;2023-06-22T06:00:06;10.98;;;9.07;;
36191;SDS011;22233;42.708;23.360;2023-06-22T06:02:35;9.75;;;8.75;;
36191;SDS011;22233;42.708;23.360;2023-06-22T06:05:01;13.60;;;9.25;;
36191;SDS011;22233;42.708;23.360;2023-06-22T06:07:27;9.98;;;8.80;;
36191;SDS011;22233;42.708;23.360;2023-06-22T06:09:53;11.20;;;8.85;;
36191;SDS011;22233;42.708;23.360;2023-06-22T06:12:18;10.90;;;8.93;;
36191;SDS011;22233;42.708;23.360;2023-06-22T06:14:44;12.52;;;9.73;;
36191;SDS011;22233;42.708;23.360;2023-06-22T06:17:09;9.50;;;8.60;;
36191;SDS011;22233;42.708;23.360;2023-06-22T06:19:34;10.25;;;8.02;;
36191;SDS011;22233;42.708;23.360;2023-06-22T06:22:00;9.07;;;8.18;;
36191;SDS011;22233;42.708;23.360;2023-06-22T06:24:26;11.75;;;7.97;;
36191;SDS011;22233;42.708;23.360;2023-06-22T06:26:51;8.20;;;7.20;;
36191;SDS011;22233;42.708;23.360;2023-06-22T06:29:17;10.80;;;7.28;;
36191;SDS011;22233;42.708;23.360;2023-06-22T06:31:42;12.88;;;8.50;;
36191;SDS011;22233;42.708;23.360;2023-06-22T06:34:08;10.27;;;7.75;;
36191;SDS011;22233;42.708;23.360;2023-06-22T06:36:33;10.95;;;8.30;;
36191;SDS011;22233;42.708;23.360;2023-06-22T06:38:58;10.40;;;7.97;;
36191;SDS011;22233;42.708;23.360;2023-06-22T06:41:24;10.48;;;8.35;;
36191;SDS011;22233;42.708;23.360;2023-06-22T06:43:49;10.60;;;8.07;;
36191;SDS011;22233;42.708;23.360;2023-06-22T06:46:15;12.93;;;8.40;;
36191;SDS011;22233;42.708;23.360;2023-06-22T06:48:40;10.07;;;8.63;;
36191;SDS011;22233;42.708;23.360;2023-06-22T06:51:06;10.82;;;8.30;;
36191;SDS011;22233;42.708;23.360;2023-06-22T06:53:34;11.60;;;7.57;;
36191;SDS011;22233;42.708;23.360;2023-06-22T06:56:00;9.38;;;7.63;;
36191;SDS011;22233;42.708;23.360;2023-06-22T06:58:30;9.63;;;7.30;;
36191;SDS011;22233;42.708;23.360;2023-06-22T07:00:55;10.30;;;7.88;;
36191;SDS011;22233;42.708;23.360;2023-06-22T07:03:21;14.45;;;7.63;;
36191;SDS011;22233;42.708;23.360;2023-06-22T07:05:46;10.90;;;8.13;;
36191;SDS011;22233;42.708;23.360;2023-06-22T07:08:11;9.27;;;8.10;;
36191;SDS011;22233;42.708;23.360;2023-06-22T07:10:40;10.27;;;7.88;;
36191;SDS011;22233;42.708;23.360;2023-06-22T07:13:05;10.52;;;7.50;;
36191;SDS011;22233;42.708;23.360;2023-06-22T07:15:30;9.25;;;7.35;;
36191;SDS011;22233;42.708;23.360;2023-06-22T07:17:56;12.30;;;8.40;;
36191;SDS011;22233;42.708;23.360;2023-06-22T07:20:21;10.38;;;7.70;;
36191;SDS011;22233;42.708;23.360;2023-06-22T07:22:47;11.95;;;8.55;;
36191;SDS011;22233;42.708;23.360;2023-06-22T07:25:12;12.10;;;7.93;;
36191;SDS011;22233;42.708;23.360;2023-06-22T07:27:46;14.05;;;8.30;;
36191;SDS011;22233;42.708;23.360;2023-06-22T07:30:21;8.18;;;7.35;;
36191;SDS011;22233;42.708;23.360;2023-06-22T07:32:47;9.00;;;8.10;;
36191;SDS011;22233;42.708;23.360;2023-06-22T07:35:12;10.00;;;8.38;;
36191;SDS011;22233;42.708;23.360;2023-06-22T07:37:38;8.60;;;7.70;;
36191;SDS011;22233;42.708;23.360;2023-06-22T07:40:03;9.10;;;8.20;;
36191;SDS011;22233;42.708;23.360;2023-06-22T07:42:31;9.60;;;7.93;;
36191;SDS011;22233;42.708;23.360;2023-06-22T07:44:57;11.68;;;8.40;;
36191;SDS011;22233;42.708;23.360;2023-06-22T07:47:23;11.77;;;8.50;;
36191;SDS011;22233;42.708;23.360;2023-06-22T07:49:50;10.93;;;8.15;;
36191;SDS011;22233;42.708;23.360;2023-06-22T07:52:16;11.13;;;8.07;;
36191;SDS011;22233;42.708;23.360;2023-06-22T07:54:42;12.05;;;8.43;;
36191;SDS011;22233;42.708;23.360;2023-06-22T07:57:07;10.23;;;8.65;;
36191;SDS011;22233;42.708;23.360;2023-06-22T07:59:33;11.30;;;8.20;;
36191;SDS011;22233;42.708;23.360;2023-06-22T08:01:58;9.75;;;7.68;;
36191;SDS011;22233;42.708;23.360;2023-06-22T08:04:24;12.48;;;9.13;;
36191;SDS011;22233;42.708;23.360;2023-06-22T08:06:49;15.82;;;9.40;;
36191;SDS011;22233;42.708;23.360;2023-06-22T08:09:14;16.52;;;10.18;;
36191;SDS011;22233;42.708;23.360;2023-06-22T08:11:40;13.90;;;10.10;;
36191;SDS011;22233;42.708;23.360;2023-06-22T08:14:05;16.88;;;10.32;;
36191;SDS011;22233;42.708;23.360;2023-06-22T08:16:31;15.10;;;10.60;;
36191;SDS011;22233;42.708;23.360;2023-06-22T08:18:56;11.15;;;9.95;;
36191;SDS011;22233;42.708;23.360;2023-06-22T08:21:22;16.42;;;9.95;;
36191;SDS011;22233;42.708;23.360;2023-06-22T08:23:47;14.10;;;9.55;;
36191;SDS011;22233;42.708;23.360;2023-06-22T08:26:14;15.82;;;10.40;;
36191;SDS011;22233;42.708;23.360;2023-06-22T08:28:39;14.27;;;10.80;;
36191;SDS011;22233;42.708;23.360;2023-06-22T08:31:05;19.20;;;10.77;;
36191;SDS011;22233;42.708;23.360;2023-06-22T08:33:30;14.15;;;10.43;;
36191;SDS011;22233;42.708;23.360;2023-06-22T08:35:56;13.43;;;10.75;;
36191;SDS011;22233;42.708;23.360;2023-06-22T08:38:21;16.73;;;10.60;;
36191;SDS011;22233;42.708;23.360;2023-06-22T08:40:47;17.17;;;10.95;;
36191;SDS011;22233;42.708;23.360;2023-06-22T08:43:12;17.15;;;12.20;;
36191;SDS011;22233;42.708;23.360;2023-06-22T08:45:38;12.20;;;9.88;;
36191;SDS011;22233;42.708;23.360;2023-06-22T08:48:03;16.45;;;9.82;;
36191;SDS011;22233;42.708;23.360;2023-06-22T08:50:29;15.45;;;10.18;;
36191;SDS011;22233;42.708;23.360;2023-06-22T08:52:54;11.02;;;9.27;;
36191;SDS011;22233;42.708;23.360;2023-06-22T08:55:19;11.27;;;8.88;;
36191;SDS011;22233;42.708;23.360;2023-06-22T08:57:45;12.73;;;9.95;;
36191;SDS011;22233;42.708;23.360;2023-06-22T09:00:10;11.32;;;8.82;;
36191;SDS011;22233;42.708;23.360;2023-06-22T09:02:46;15.40;;;10.52;;
36191;SDS011;22233;42.708;23.360;2023-06-22T09:05:12;13.02;;;9.40;;
36191;SDS011;22233;42.708;23.360;2023-06-22T09:07:38;16.55;;;9.70;;
36191;SDS011;22233;42.708;23.360;2023-06-22T09:10:03;14.85;;;9.38;;
36191;SDS011;22233;42.708;23.360;2023-06-22T09:12:30;11.82;;;9.45;;
36191;SDS011;22233;42.708;23.360;2023-06-22T09:14:55;10.63;;;8.88;;
36191;SDS011;22233;42.708;23.360;2023-06-22T09:17:21;12.90;;;9.27;;
36191;SDS011;22233;42.708;23.360;2023-06-22T09:19:47;16.00;;;8.70;;
36191;SDS011;22233;42.708;23.360;2023-06-22T09:22:13;10.45;;;8.98;;
36191;SDS011;22233;42.708;23.360;2023-06-22T09:24:39;15.50;;;8.73;;
36191;SDS011;22233;42.708;23.360;2023-06-22T09:27:05;12.43;;;8.30;;
36191;SDS011;22233;42.708;23.360;2023-06-22T09:29:30;12.40;;;8.45;;
36191;SDS011;22233;42.708;23.360;2023-06-22T09:31:58;11.65;;;8.45;;
36191;SDS011;22233;42.708;23.360;2023-06-22T09:34:24;11.52;;;8.68;;
36191;SDS011;22233;42.708;23.360;2023-06-22T09:36:49;9.73;;;8.18;;
36191;SDS011;22233;42.708;23.360;2023-06-22T09:39:15;11.45;;;8.45;;
36191;SDS011;22233;42.708;23.360;2023-06-22T09:41:40;9.45;;;7.97;;
36191;SDS011;22233;42.708;23.360;2023-06-22T09:44:05;8.35;;;7.55;;
36191;SDS011;22233;42.708;23.360;2023-06-22T09:46:31;8.77;;;7.55;;
36191;SDS011;22233;42.708;23.360;2023-06-22T09:48:56;8.43;;;7.13;;
36191;SDS011;22233;42.708;23.360;2023-06-22T09:51:22;8.38;;;7.55;;
36191;SDS011;22233;42.708;23.360;2023-06-22T09:53:49;8.20;;;7.30;;
36191;SDS011;22233;42.708;23.360;2023-06-22T09:56:15;10.75;;;7.47;;
36191;SDS011;22233;42.708;23.360;2023-06-22T09:58:41;8.27;;;7.40;;
36191;SDS011;22233;42.708;23.360;2023-06-22T10:01:08;6.97;;;6.30;;
36191;SDS011;22233;42.708;23.360;2023-06-22T10:03:33;6.88;;;6.22;;
36191;SDS011;22233;42.708;23.360;2023-06-22T10:05:58;7.10;;;6.40;;
36191;SDS011;22233;42.708;23.360;2023-06-22T10:08:24;8.80;;;6.93;;
36191;SDS011;22233;42.708;23.360;2023-06-22T10:10:49;9.70;;;7.45;;
36191;SDS011;22233;42.708;23.360;2023-06-22T10:13:15;7.35;;;6.65;;
36191;SDS011;22233;42.708;23.360;2023-06-22T10:15:40;7.63;;;6.60;;
36191;SDS011;22233;42.708;23.360;2023-06-22T10:18:06;7.53;;;6.63;;
36191;SDS011;22233;42.708;23.360;2023-06-22T10:20:32;6.85;;;6.25;;
36191;SDS011;22233;42.708;23.360;2023-06-22T10:22:57;9.82;;;6.78;;
36191;SDS011;22233;42.708;23.360;2023-06-22T10:25:23;11.48;;;7.50;;
36191;SDS011;22233;42.708;23.360;2023-06-22T10:27:49;12.77;;;7.38;;
36191;SDS011;22233;42.708;23.360;2023-06-22T10:30:14;7.13;;;6.45;;
36191;SDS011;22233;42.708;23.360;2023-06-22T10:32:40;8.23;;;6.47;;
36191;SDS011;22233;42.708;23.360;2023-06-22T10:35:08;8.60;;;6.78;;
36191;SDS011;22233;42.708;23.360;2023-06-22T10:37:35;6.55;;;5.95;;
36191;SDS011;22233;42.708;23.360;2023-06-22T10:40:01;8.57;;;6.60;;
36191;SDS011;22233;42.708;23.360;2023-06-22T10:42:28;7.22;;;6.38;;
36191;SDS011;22233;42.708;23.360;2023-06-22T10:44:54;7.90;;;6.72;;
36191;SDS011;22233;42.708;23.360;2023-06-22T10:47:19;7.27;;;6.57;;
36191;SDS011;22233;42.708;23.360;2023-06-22T10:49:44;9.03;;;7.07;;
36191;SDS011;22233;42.708;23.360;2023-06-22T10:52:10;7.88;;;6.82;;
36191;SDS011;22233;42.708;23.360;2023-06-22T10:54:36;7.97;;;6.70;;
36191;SDS011;22233;42.708;23.360;2023-06-22T10:57:02;7.57;;;6.80;;
36191;SDS011;22233;42.708;23.360;2023-06-22T10:59:28;8.05;;;7.25;;
36191;SDS011;22233;42.708;23.360;2023-06-22T11:01:57;7.97;;;7.27;;
36191;SDS011;22233;42.708;23.360;2023-06-22T11:04:23;7.93;;;7.13;;
36191;SDS011;22233;42.708;23.360;2023-06-22T11:06:49;7.60;;;6.82;;
36191;SDS011;22233;42.708;23.360;2023-06-22T11:09:14;9.30;;;7.95;;
36191;SDS011;22233;42.708;23.360;2023-06-22T11:11:46;7.70;;;6.72;;
36191;SDS011;22233;42.708;23.360;2023-06-22T11:14:12;7.20;;;6.50;;
36191;SDS011;22233;42.708;23.360;2023-06-22T11:16:38;7.90;;;6.37;;
36191;SDS011;22233;42.708;23.360;2023-06-22T11:19:04;9.02;;;6.22;;
36191;SDS011;22233;42.708;23.360;2023-06-22T11:23:56;6.90;;;5.93;;
36191;SDS011;22233;42.708;23.360;2023-06-22T11:26:22;6.73;;;6.13;;
36191;SDS011;22233;42.708;23.360;2023-06-22T11:28:48;7.00;;;6.30;;
36191;SDS011;22233;42.708;23.360;2023-06-22T11:31:13;8.10;;;6.97;;
36191;SDS011;22233;42.708;23.360;2023-06-22T11:33:39;7.63;;;6.82;;
36191;SDS011;22233;42.708;23.360;2023-06-22T11:36:04;7.63;;;6.23;;
36191;SDS011;22233;42.708;23.360;2023-06-22T11:38:30;6.68;;;6.07;;
36191;SDS011;22233;42.708;23.360;2023-06-22T11:40:57;8.45;;;6.78;;
36191;SDS011;22233;42.708;23.360;2023-06-22T11:43:23;7.15;;;6.43;;
36191;SDS011;22233;42.708;23.360;2023-06-22T11:45:49;6.97;;;6.38;;
36191;SDS011;22233;42.708;23.360;2023-06-22T11:48:15;7.43;;;6.72;;
36191;SDS011;22233;42.708;23.360;2023-06-22T11:50:40;7.75;;;6.45;;
36191;SDS011;22233;42.708;23.360;2023-06-22T11:53:06;7.90;;;6.37;;
36191;SDS011;22233;42.708;23.360;2023-06-22T11:55:31;6.97;;;6.37;;
36191;SDS011;22233;42.708;23.360;2023-06-22T11:57:57;6.63;;;6.03;;
36191;SDS011;22233;42.708;23.360;2023-06-22T12:00:28;6.03;;;5.43;;
36191;SDS011;22233;42.708;23.360;2023-06-22T12:02:54;7.55;;;6.18;;
36191;SDS011;22233;42.708;23.360;2023-06-22T12:05:21;6.65;;;6.05;;
36191;SDS011;22233;42.708;23.360;2023-06-22T12:07:47;8.77;;;6.30;;
36191;SDS011;22233;42.708;23.360;2023-06-22T12:10:13;6.07;;;5.53;;
36191;SDS011;22233;42.708;23.360;2023-06-22T12:12:38;7.90;;;5.77;;
36191;SDS011;22233;42.708;23.360;2023-06-22T12:15:04;8.23;;;6.10;;
36191;SDS011;22233;42.708;23.360;2023-06-22T12:17:30;9.20;;;6.40;;
36191;SDS011;22233;42.708;23.360;2023-06-22T12:19:56;6.33;;;5.73;;
36191;SDS011;22233;42.708;23.360;2023-06-22T12:22:21;10.63;;;6.53;;
36191;SDS011;22233;42.708;23.360;2023-06-22T12:24:47;13.02;;;7.15;;
36191;SDS011;22233;42.708;23.360;2023-06-22T12:27:12;8.00;;;6.83;;
36191;SDS011;22233;42.708;23.360;2023-06-22T12:29:41;9.07;;;6.65;;
36191;SDS011;22233;42.708;23.360;2023-06-22T12:32:07;8.95;;;6.72;;
36191;SDS011;22233;42.708;23.360;2023-06-22T12:34:32;10.10;;;7.75;;
36191;SDS011;22233;42.708;23.360;2023-06-22T12:36:58;10.38;;;7.57;;
36191;SDS011;22233;42.708;23.360;2023-06-22T12:39:23;11.77;;;7.28;;
36191;SDS011;22233;42.708;23.360;2023-06-22T12:41:49;8.15;;;6.65;;
36191;SDS011;22233;42.708;23.360;2023-06-22T12:44:14;8.35;;;6.80;;
36191;SDS011;22233;42.708;23.360;2023-06-22T12:46:39;9.20;;;6.30;;
36191;SDS011;22233;42.708;23.360;2023-06-22T12:49:05;8.10;;;6.15;;
36191;SDS011;22233;42.708;23.360;2023-06-22T12:51:30;11.40;;;6.35;;
36191;SDS011;22233;42.708;23.360;2023-06-22T12:53:56;10.25;;;6.20;;
36191;SDS011;22233;42.708;23.360;2023-06-22T12:56:22;10.20;;;6.70;;
36191;SDS011;22233;42.708;23.360;2023-06-22T12:58:47;8.82;;;6.30;;
36191;SDS011;22233;42.708;23.360;2023-06-22T13:01:13;9.90;;;5.60;;
36191;SDS011;22233;42.708;23.360;2023-06-22T13:03:38;7.22;;;5.13;;
36191;SDS011;22233;42.708;23.360;2023-06-22T13:06:04;7.00;;;5.80;;
36191;SDS011;22233;42.708;23.360;2023-06-22T13:08:29;9.90;;;6.53;;
36191;SDS011;22233;42.708;23.360;2023-06-22T13:10:55;7.10;;;6.40;;
36191;SDS011;22233;42.708;23.360;2023-06-22T13:13:23;8.68;;;6.93;;
36191;SDS011;22233;42.708;23.360;2023-06-22T13:15:54;9.20;;;6.53;;
36191;SDS011;22233;42.708;23.360;2023-06-22T13:18:20;7.32;;;6.28;;
36191;SDS011;22233;42.708;23.360;2023-06-22T13:20:45;7.72;;;6.13;;
36191;SDS011;22233;42.708;23.360;2023-06-22T13:23:11;9.07;;;6.97;;
36191;SDS011;22233;42.708;23.360;2023-06-22T13:25:37;8.25;;;5.35;;
36191;SDS011;22233;42.708;23.360;2023-06-22T13:28:02;8.07;;;6.18;;
36191;SDS011;22233;42.708;23.360;2023-06-22T13:30:28;9.98;;;5.90;;
36191;SDS011;22233;42.708;23.360;2023-06-22T13:32:53;8.40;;;7.07;;
36191;SDS011;22233;42.708;23.360;2023-06-22T13:35:19;12.30;;;6.80;;
36191;SDS011;22233;42.708;23.360;2023-06-22T13:37:44;11.95;;;7.57;;
36191;SDS011;22233;42.708;23.360;2023-06-22T13:40:09;10.85;;;7.43;;
36191;SDS011;22233;42.708;23.360;2023-06-22T13:42:35;11.20;;;8.05;;
36191;SDS011;22233;42.708;23.360;2023-06-22T13:45:01;9.88;;;7.57;;
36191;SDS011;22233;42.708;23.360;2023-06-22T13:47:26;10.32;;;7.75;;
36191;SDS011;22233;42.708;23.360;2023-06-22T13:49:52;12.85;;;8.50;;
36191;SDS011;22233;42.708;23.360;2023-06-22T13:52:17;9.68;;;7.75;;
36191;SDS011;22233;42.708;23.360;2023-06-22T13:54:43;9.52;;;8.20;;
36191;SDS011;22233;42.708;23.360;2023-06-22T13:57:08;8.88;;;7.90;;
36191;SDS011;22233;42.708;23.360;2023-06-22T13:59:34;9.48;;;7.35;;
36191;SDS011;22233;42.708;23.360;2023-06-22T14:01:59;9.73;;;8.05;;
36191;SDS011;22233;42.708;23.360;2023-06-22T14:04:25;10.68;;;8.52;;
36191;SDS011;22233;42.708;23.360;2023-06-22T14:06:51;11.48;;;8.43;;
36191;SDS011;22233;42.708;23.360;2023-06-22T14:09:16;13.55;;;8.93;;
36191;SDS011;22233;42.708;23.360;2023-06-22T14:11:42;14.15;;;8.55;;
36191;SDS011;22233;42.708;23.360;2023-06-22T14:14:07;13.35;;;8.35;;
36191;SDS011;22233;42.708;23.360;2023-06-22T14:16:32;11.65;;;8.13;;
36191;SDS011;22233;42.708;23.360;2023-06-22T14:18:58;13.75;;;8.50;;
36191;SDS011;22233;42.708;23.360;2023-06-22T14:21:23;13.13;;;8.13;;
36191;SDS011;22233;42.708;23.360;2023-06-22T14:23:49;10.88;;;9.02;;
36191;SDS011;22233;42.708;23.360;2023-06-22T14:26:15;10.18;;;9.00;;
36191;SDS011;22233;42.708;23.360;2023-06-22T14:28:46;11.00;;;7.75;;
36191;SDS011;22233;42.708;23.360;2023-06-22T14:31:17;9.60;;;7.72;;
36191;SDS011;22233;42.708;23.360;2023-06-22T14:33:46;11.38;;;8.25;;
36191;SDS011;22233;42.708;23.360;2023-06-22T14:36:13;8.40;;;7.43;;
36191;SDS011;22233;42.708;23.360;2023-06-22T14:38:39;15.70;;;8.68;;
36191;SDS011;22233;42.708;23.360;2023-06-22T14:41:05;10.98;;;8.45;;